createdAt,value
2023-03-28T00:02:06.944Z,3.00
2023-03-28T00:04:37.591Z,3.03
2023-03-28T00:07:06.081Z,2.90
2023-03-28T00:09:34.370Z,3.23
2023-03-28T00:12:03.974Z,3.23
2023-03-28T00:14:32.225Z,3.07
2023-03-28T00:17:02.052Z,2.73
2023-03-28T00:19:33.098Z,3.50
2023-03-28T00:22:01.449Z,2.33
2023-03-28T00:24:29.633Z,2.50
2023-03-28T00:27:00.652Z,2.73
2023-03-28T00:29:30.376Z,2.73
2023-03-28T00:31:58.697Z,1.80
2023-03-28T00:34:27.111Z,2.40
2023-03-28T00:36:55.411Z,2.27
2023-03-28T00:39:23.658Z,2.30
2023-03-28T00:41:52.397Z,2.10
2023-03-28T00:44:49.238Z,1.80
2023-03-28T00:47:30.949Z,1.47
2023-03-28T00:50:03.225Z,1.50
2023-03-28T00:52:35.772Z,1.90
2023-03-28T00:55:07.164Z,1.97
2023-03-28T00:57:38.342Z,2.10
2023-03-28T01:00:12.887Z,1.73
2023-03-28T01:02:46.652Z,1.50
2023-03-28T01:05:15.253Z,1.53
2023-03-28T01:07:50.599Z,2.27
2023-03-28T01:10:20.734Z,2.00
2023-03-28T01:12:49.924Z,2.00
2023-03-28T01:15:19.914Z,2.17
2023-03-28T01:17:48.342Z,2.37
2023-03-28T01:20:30.275Z,2.77
2023-03-28T01:23:45.823Z,2.40
2023-03-28T01:26:51.236Z,2.30
2023-03-28T01:29:54.998Z,2.30
2023-03-28T01:32:57.588Z,2.70
2023-03-28T01:36:04.713Z,2.07
2023-03-28T01:38:40.022Z,2.47
2023-03-28T01:41:20.072Z,2.07
2023-03-28T01:43:53.607Z,2.20
2023-03-28T01:46:29.212Z,2.57
2023-03-28T01:49:05.231Z,2.03
2023-03-28T01:51:47.422Z,2.23
2023-03-28T01:54:29.137Z,2.43
2023-03-28T01:57:04.524Z,2.37
2023-03-28T01:59:39.025Z,2.27
2023-03-28T02:02:13.434Z,2.30
2023-03-28T02:04:46.604Z,1.90
2023-03-28T02:07:16.441Z,2.17
2023-03-28T02:09:47.446Z,2.03
2023-03-28T02:12:21.626Z,2.00
2023-03-28T02:14:52.085Z,1.83
2023-03-28T02:17:22.263Z,2.30
2023-03-28T02:19:55.214Z,1.87
2023-03-28T02:22:32.945Z,1.63
2023-03-28T02:25:02.845Z,1.73
2023-03-28T02:27:32.133Z,1.80
2023-03-28T02:30:00.702Z,2.27
2023-03-28T02:32:28.978Z,2.50
2023-03-28T02:34:57.327Z,2.60
2023-03-28T02:37:41.271Z,2.73
2023-03-28T02:40:29.082Z,2.40
2023-03-28T02:43:18.932Z,2.63
2023-03-28T02:46:17.675Z,3.37
2023-03-28T02:49:01.753Z,3.23
2023-03-28T02:51:35.898Z,3.77
2023-03-28T02:54:19.123Z,3.97
2023-03-28T02:57:01.879Z,3.60
2023-03-28T02:59:35.984Z,3.87
2023-03-28T03:02:07.651Z,4.13
2023-03-28T03:04:36.086Z,4.07
2023-03-28T03:07:04.384Z,3.33
2023-03-28T03:09:33.426Z,3.60
2023-03-28T03:12:03.083Z,3.47
2023-03-28T03:14:31.247Z,3.43
2023-03-28T03:16:59.459Z,2.97
2023-03-28T03:19:27.716Z,3.70
2023-03-28T03:21:55.927Z,3.20
2023-03-28T03:24:25.217Z,3.67
2023-03-28T03:26:53.697Z,3.17
2023-03-28T03:29:23.256Z,3.40
2023-03-28T03:31:51.761Z,3.30
2023-03-28T03:34:20.096Z,3.70
2023-03-28T03:36:50.095Z,3.80
2023-03-28T03:39:18.404Z,3.03
2023-03-28T03:41:46.517Z,3.43
2023-03-28T03:44:14.685Z,2.97
2023-03-28T03:46:44.353Z,3.03
2023-03-28T03:49:12.693Z,3.80
2023-03-28T03:51:41.132Z,3.47
2023-03-28T03:54:09.306Z,2.80
2023-03-28T03:56:37.464Z,4.07
2023-03-28T03:59:05.864Z,3.57
2023-03-28T04:01:36.051Z,3.30
2023-03-28T04:04:07.451Z,3.90
2023-03-28T04:06:35.936Z,3.10
2023-03-28T04:09:04.125Z,3.40
2023-03-28T04:11:32.184Z,3.57
2023-03-28T04:14:00.698Z,3.03
2023-03-28T04:16:29.919Z,3.20
2023-03-28T04:19:13.891Z,3.20
2023-03-28T04:21:43.921Z,2.90
2023-03-28T04:24:15.767Z,2.90
2023-03-28T04:26:46.058Z,3.73
2023-03-28T04:29:16.457Z,2.97
2023-03-28T04:31:50.314Z,2.50
2023-03-28T04:34:20.520Z,2.67
2023-03-28T04:36:48.836Z,3.27
2023-03-28T04:39:17.028Z,2.53
2023-03-28T04:41:46.641Z,2.30
2023-03-28T04:44:14.935Z,2.57
2023-03-28T04:46:43.974Z,3.00
2023-03-28T04:49:12.357Z,2.87
2023-03-28T04:51:42.375Z,2.40
2023-03-28T04:54:10.630Z,3.00
2023-03-28T04:56:38.778Z,2.40
2023-03-28T04:59:07.067Z,2.00
2023-03-28T05:01:35.795Z,1.90
2023-03-28T05:04:04.240Z,1.90
2023-03-28T05:06:32.892Z,2.00
2023-03-28T05:09:02.491Z,2.10
2023-03-28T05:11:31.694Z,2.00
2023-03-28T05:13:59.818Z,1.90
2023-03-28T05:16:28.315Z,2.30
2023-03-28T05:18:56.804Z,2.00
2023-03-28T05:21:27.335Z,1.83
2023-03-28T05:23:55.670Z,1.77
2023-03-28T05:26:25.847Z,2.83
2023-03-28T05:28:54.236Z,1.90
2023-03-28T05:31:22.548Z,2.20
2023-03-28T05:33:50.750Z,2.13
2023-03-28T05:36:19.079Z,2.20
2023-03-28T05:38:47.694Z,2.10
2023-03-28T05:41:16.133Z,1.90
2023-03-28T05:43:45.613Z,2.53
2023-03-28T05:46:14.039Z,1.80
2023-03-28T05:48:42.805Z,1.80
2023-03-28T05:51:17.738Z,1.60
2023-03-28T05:53:46.020Z,1.60
2023-03-28T05:56:14.853Z,2.17
2023-03-28T05:58:43.471Z,1.97
2023-03-28T06:01:18.657Z,1.90
2023-03-28T06:03:48.479Z,1.90
2023-03-28T06:06:18.244Z,1.70
2023-03-28T06:08:47.511Z,2.17
2023-03-28T06:11:16.349Z,1.97
2023-03-28T06:13:44.537Z,1.77
2023-03-28T06:16:15.533Z,2.27
2023-03-28T06:18:43.756Z,2.00
2023-03-28T06:21:13.227Z,1.93
2023-03-28T06:23:41.859Z,2.30
2023-03-28T06:26:10.139Z,2.47
2023-03-28T06:28:38.495Z,2.17
2023-03-28T06:31:06.947Z,2.10
2023-03-28T06:33:37.671Z,2.17
2023-03-28T06:36:07.212Z,2.00
2023-03-28T06:38:35.566Z,2.10
2023-03-28T06:41:03.982Z,2.60
2023-03-28T06:43:32.356Z,2.83
2023-03-28T06:46:00.623Z,3.37
2023-03-28T06:48:33.633Z,2.90
2023-03-28T06:51:06.281Z,4.20
2023-03-28T06:53:36.196Z,3.43
2023-03-28T06:56:04.414Z,3.70
2023-03-28T06:58:33.922Z,3.67
2023-03-28T07:01:02.514Z,3.60
2023-03-28T07:03:33.146Z,4.00
2023-03-28T07:06:10.120Z,3.17
2023-03-28T07:08:38.568Z,2.97
2023-03-28T07:11:09.308Z,3.40
2023-03-28T07:13:38.745Z,3.13
2023-03-28T07:16:09.402Z,3.10
2023-03-28T07:18:38.767Z,3.07
2023-03-28T07:21:11.208Z,2.93
2023-03-28T07:23:40.575Z,3.77
2023-03-28T07:26:11.129Z,3.33
2023-03-28T07:28:40.055Z,3.53
2023-03-28T07:31:09.179Z,4.00
2023-03-28T07:33:39.571Z,3.10
2023-03-28T07:36:16.744Z,3.10
2023-03-28T07:38:48.397Z,3.10
2023-03-28T07:41:17.464Z,2.67
2023-03-28T07:43:48.646Z,3.23
2023-03-28T07:46:18.102Z,2.80
2023-03-28T07:48:46.723Z,3.10
2023-03-28T07:51:18.280Z,3.43
2023-03-28T07:53:46.920Z,3.10
2023-03-28T07:56:15.006Z,3.13
2023-03-28T07:58:43.309Z,3.40
2023-03-28T08:01:13.999Z,3.10
2023-03-28T08:03:42.950Z,3.50
2023-03-28T08:06:28.697Z,3.23
2023-03-28T08:09:01.766Z,2.90
2023-03-28T08:11:30.104Z,2.33
2023-03-28T08:13:58.346Z,2.20
2023-03-28T08:16:26.731Z,2.50
2023-03-28T08:19:03.949Z,2.20
2023-03-28T08:21:38.600Z,3.07
2023-03-28T08:24:14.049Z,3.00
2023-03-28T08:26:48.648Z,3.27
2023-03-28T08:29:17.003Z,2.90
2023-03-28T08:31:45.503Z,3.60
2023-03-28T08:34:13.866Z,3.40
2023-03-28T08:36:42.660Z,3.33
2023-03-28T08:39:12.681Z,3.40
2023-03-28T08:41:57.563Z,3.07
2023-03-28T08:44:48.321Z,3.10
2023-03-28T08:47:21.560Z,3.43
2023-03-28T08:49:55.720Z,2.80
2023-03-28T08:52:24.495Z,3.60
2023-03-28T08:55:00.054Z,3.53
2023-03-28T08:57:44.686Z,2.57
2023-03-28T09:00:17.588Z,2.83
2023-03-28T09:02:46.080Z,2.70
2023-03-28T09:07:56.215Z,2.50
2023-03-28T09:10:33.694Z,2.50
2023-03-28T09:13:11.480Z,2.53
2023-03-28T09:15:49.351Z,2.03
2023-03-28T09:18:39.302Z,2.27
2023-03-28T09:21:18.281Z,2.70
2023-03-28T09:24:13.177Z,2.63
2023-03-28T09:26:48.483Z,3.03
2023-03-28T09:29:20.011Z,3.00
2023-03-28T09:31:51.222Z,2.70
2023-03-28T09:34:23.499Z,3.03
2023-03-28T09:36:55.517Z,2.60
2023-03-28T09:39:34.085Z,2.50
2023-03-28T09:42:08.060Z,1.67
2023-03-28T09:44:52.981Z,2.43
2023-03-28T09:47:22.877Z,2.07
2023-03-28T09:50:02.135Z,1.97
2023-03-28T09:52:34.245Z,2.40
2023-03-28T09:55:03.126Z,2.33
2023-03-28T09:58:00.977Z,2.60
2023-03-28T10:00:29.861Z,2.83
2023-03-28T10:02:58.611Z,2.60
2023-03-28T10:05:36.893Z,2.37
2023-03-28T10:08:21.476Z,2.23
2023-03-28T10:11:02.837Z,2.63
2023-03-28T10:13:41.746Z,2.17
2023-03-28T10:16:13.747Z,2.40
2023-03-28T10:18:44.213Z,2.40
2023-03-28T10:21:15.929Z,2.37
2023-03-28T10:23:51.337Z,2.33
2023-03-28T10:26:26.699Z,2.20
2023-03-28T10:29:02.301Z,2.10
2023-03-28T10:31:34.328Z,2.00
2023-03-28T10:34:03.212Z,2.20
2023-03-28T10:36:34.005Z,2.63
2023-03-28T10:39:22.541Z,2.17
2023-03-28T10:41:54.896Z,2.33
2023-03-28T10:44:30.686Z,2.50
2023-03-28T10:47:02.496Z,2.37
2023-03-28T10:49:38.958Z,2.43
2023-03-28T10:52:23.113Z,2.47
2023-03-28T10:55:03.149Z,2.77
2023-03-28T10:57:40.302Z,2.63
2023-03-28T11:00:15.519Z,2.37
2023-03-28T11:03:18.063Z,2.53
2023-03-28T11:06:07.931Z,2.00
2023-03-28T11:08:46.689Z,2.63
2023-03-28T11:11:31.342Z,2.50
2023-03-28T11:14:09.162Z,2.77
2023-03-28T11:16:50.600Z,2.67
2023-03-28T11:19:30.804Z,2.40
2023-03-28T11:22:08.060Z,2.33
2023-03-28T11:24:43.943Z,2.10
2023-03-28T11:27:20.570Z,2.67
2023-03-28T11:29:53.157Z,2.63
2023-03-28T11:32:27.703Z,2.30
2023-03-28T11:35:06.657Z,2.50
2023-03-28T11:37:40.188Z,2.40
2023-03-28T11:40:20.122Z,3.73
2023-03-28T11:42:53.149Z,2.40
2023-03-28T11:45:42.001Z,2.97
2023-03-28T11:48:22.853Z,2.63
2023-03-28T11:51:00.347Z,3.00
2023-03-28T11:53:32.102Z,2.87
2023-03-28T11:56:06.963Z,2.50
2023-03-28T11:58:38.633Z,2.60
2023-03-28T12:01:12.131Z,2.70
2023-03-28T12:03:55.854Z,2.50
2023-03-28T12:06:30.747Z,2.37
2023-03-28T12:09:03.772Z,2.43
2023-03-28T12:11:38.877Z,2.40
2023-03-28T12:14:17.396Z,3.37
2023-03-28T12:16:49.392Z,2.93
2023-03-28T12:19:30.579Z,2.80
2023-03-28T12:22:04.729Z,3.50
2023-03-28T12:24:41.874Z,2.57
2023-03-28T12:27:21.030Z,3.20
2023-03-28T12:29:54.860Z,2.90
2023-03-28T12:32:38.460Z,2.33
2023-03-28T12:35:15.998Z,2.87
2023-03-28T12:37:55.814Z,2.60
2023-03-28T12:40:29.699Z,3.20
2023-03-28T12:42:59.734Z,2.43
2023-03-28T12:45:31.629Z,2.90
2023-03-28T12:48:06.881Z,3.20
2023-03-28T12:50:47.376Z,2.90
2023-03-28T12:53:17.300Z,2.60
2023-03-28T12:55:52.346Z,2.90
2023-03-28T12:58:27.320Z,2.50
2023-03-28T13:01:20.882Z,3.00
2023-03-28T13:04:01.835Z,2.90
2023-03-28T13:06:42.479Z,2.60
2023-03-28T13:09:24.823Z,2.90
2023-03-28T13:12:00.301Z,2.73
2023-03-28T13:14:58.033Z,2.80
2023-03-28T13:17:28.104Z,2.40
2023-03-28T13:20:07.290Z,3.70
2023-03-28T13:22:44.377Z,2.67
2023-03-28T13:25:34.008Z,2.70
2023-03-28T13:28:22.729Z,3.33
2023-03-28T13:31:07.667Z,2.70
2023-03-28T13:33:38.406Z,2.67
2023-03-28T13:36:37.731Z,2.40
2023-03-28T13:39:22.019Z,2.67
2023-03-28T13:42:02.431Z,3.10
2023-03-28T13:44:35.043Z,2.63
2023-03-28T13:47:03.358Z,2.80
2023-03-28T13:49:44.008Z,2.77
2023-03-28T13:52:16.830Z,2.90
2023-03-28T13:54:54.683Z,3.20
2023-03-28T13:57:26.360Z,2.13
2023-03-28T13:59:58.604Z,2.23
2023-03-28T14:02:38.112Z,2.53
2023-03-28T14:05:19.817Z,2.80
2023-03-28T14:07:48.200Z,2.90
2023-03-28T14:10:30.023Z,3.10
2023-03-28T14:13:01.661Z,2.63
2023-03-28T14:15:33.685Z,2.57
2023-03-28T14:18:03.198Z,3.00
2023-03-28T14:20:33.155Z,2.70
2023-03-28T14:23:01.896Z,2.97
2023-03-28T14:25:31.641Z,2.53
2023-03-28T14:28:09.242Z,2.87
2023-03-28T14:30:42.403Z,2.23
2023-03-28T14:33:21.433Z,2.57
2023-03-28T14:36:01.857Z,3.00
2023-03-28T14:38:35.295Z,2.40
2023-03-28T14:41:13.371Z,2.97
2023-03-28T14:43:41.879Z,2.90
2023-03-28T14:46:12.306Z,2.30
2023-03-28T14:48:43.497Z,2.83
2023-03-28T14:51:14.425Z,2.20
2023-03-28T14:53:45.974Z,2.80
2023-03-28T14:56:19.594Z,2.43
2023-03-28T14:58:50.214Z,3.43
2023-03-28T15:01:23.078Z,2.60
2023-03-28T15:03:58.574Z,2.20
2023-03-28T15:06:29.496Z,2.57
2023-03-28T15:09:00.534Z,2.70
2023-03-28T15:11:32.846Z,2.60
2023-03-28T15:14:03.482Z,2.37
2023-03-28T15:16:33.462Z,2.70
2023-03-28T15:19:07.130Z,2.47
2023-03-28T15:21:36.246Z,2.47
2023-03-28T15:24:05.894Z,2.23
2023-03-28T15:26:38.318Z,2.50
2023-03-28T15:29:08.714Z,2.40
2023-03-28T15:31:41.491Z,2.60
2023-03-28T15:34:11.944Z,2.30
2023-03-28T15:36:56.350Z,2.03
2023-03-28T15:39:26.595Z,2.50
2023-03-28T15:42:00.616Z,2.50
2023-03-28T15:44:31.768Z,2.27
2023-03-28T15:47:02.951Z,2.30
2023-03-28T15:49:36.918Z,2.10
2023-03-28T15:52:06.800Z,2.23
2023-03-28T15:54:42.278Z,2.20
2023-03-28T15:57:14.419Z,2.03
2023-03-28T15:59:47.760Z,2.30
2023-03-28T16:02:33.686Z,2.53
2023-03-28T16:05:03.712Z,2.40
2023-03-28T16:07:37.123Z,2.23
2023-03-28T16:10:06.178Z,2.30
2023-03-28T16:12:35.674Z,2.20
2023-03-28T16:15:05.495Z,2.20
2023-03-28T16:17:34.140Z,2.60
2023-03-28T16:20:04.095Z,2.00
2023-03-28T16:22:32.199Z,2.30
2023-03-28T16:25:00.333Z,2.37
2023-03-28T16:27:28.376Z,2.33
2023-03-28T16:29:58.213Z,2.40
2023-03-28T16:32:26.794Z,2.60
2023-03-28T16:34:55.229Z,2.40
2023-03-28T16:37:23.444Z,2.73
2023-03-28T16:39:51.609Z,2.60
2023-03-28T16:42:20.875Z,2.70
2023-03-28T16:44:49.179Z,2.40
2023-03-28T16:47:18.735Z,2.80
2023-03-28T16:49:46.868Z,2.73
2023-03-28T16:52:15.009Z,3.40
2023-03-28T16:54:44.322Z,2.70
2023-03-28T16:57:12.526Z,2.83
2023-03-28T16:59:40.686Z,3.37
2023-03-28T17:02:09.165Z,2.50
2023-03-28T17:04:39.187Z,2.37
2023-03-28T17:07:08.298Z,2.97
2023-03-28T17:09:36.407Z,2.20
2023-03-28T17:12:04.669Z,2.60
2023-03-28T17:14:32.903Z,2.60
2023-03-28T17:17:01.593Z,2.80
2023-03-28T17:19:30.217Z,3.13
2023-03-28T17:22:00.661Z,2.50
2023-03-28T17:24:30.032Z,2.90
2023-03-28T17:26:58.172Z,2.87
2023-03-28T17:29:26.474Z,2.60
2023-03-28T17:31:55.346Z,2.80
2023-03-28T17:34:24.794Z,2.47
2023-03-28T17:36:53.487Z,2.87
2023-03-28T17:39:23.161Z,2.00
2023-03-28T17:41:51.480Z,2.47
2023-03-28T17:44:20.538Z,2.63
2023-03-28T17:46:48.875Z,2.80
2023-03-28T17:49:18.271Z,2.30
2023-03-28T17:51:46.795Z,2.20
2023-03-28T17:54:15.109Z,2.43
2023-03-28T17:56:45.032Z,2.27
2023-03-28T17:59:13.824Z,2.37
2023-03-28T18:01:41.972Z,2.20
2023-03-28T18:04:10.326Z,2.17
2023-03-28T18:06:38.540Z,2.33
2023-03-28T18:09:06.754Z,2.23
2023-03-28T18:11:35.866Z,2.63
2023-03-28T18:14:06.189Z,2.07
2023-03-28T18:16:36.335Z,2.27
2023-03-28T18:19:06.938Z,2.47
2023-03-28T18:21:35.246Z,2.83
2023-03-28T18:24:03.562Z,2.40
2023-03-28T18:26:33.235Z,2.63
2023-03-28T18:29:01.663Z,2.60
2023-03-28T18:31:32.416Z,3.50
2023-03-28T18:34:00.633Z,2.60
2023-03-28T18:36:28.911Z,2.50
2023-03-28T18:38:57.130Z,3.20
2023-03-28T18:41:27.503Z,2.87
2023-03-28T18:43:55.685Z,2.93
2023-03-28T18:46:25.575Z,2.83
2023-03-28T18:48:56.530Z,2.93
2023-03-28T18:51:25.706Z,2.80
2023-03-28T18:53:54.026Z,2.70
2023-03-28T18:56:22.961Z,2.70
2023-03-28T18:58:51.502Z,3.00
2023-03-28T19:01:20.707Z,2.40
2023-03-28T19:03:49.984Z,2.57
2023-03-28T19:06:19.809Z,2.40
2023-03-28T19:08:48.858Z,2.53
2023-03-28T19:11:19.803Z,3.03
2023-03-28T19:13:48.297Z,2.50
2023-03-28T19:16:19.469Z,2.50
2023-03-28T19:18:48.862Z,2.50
2023-03-28T19:21:18.127Z,2.20
2023-03-28T19:23:49.877Z,2.10
2023-03-28T19:26:19.523Z,2.57
2023-03-28T19:28:49.163Z,2.00
2023-03-28T19:31:18.500Z,2.57
2023-03-28T19:33:50.367Z,1.93
2023-03-28T19:36:26.551Z,2.40
2023-03-28T19:38:56.892Z,2.57
2023-03-28T19:41:26.660Z,2.30
2023-03-28T19:43:55.524Z,2.40
2023-03-28T19:46:34.663Z,4.13
2023-03-28T19:49:07.101Z,2.70
2023-03-28T19:51:35.735Z,2.47
2023-03-28T19:54:05.783Z,2.43
2023-03-28T19:56:34.073Z,2.10
2023-03-28T19:59:02.311Z,2.60
2023-03-28T20:01:30.667Z,2.53
2023-03-28T20:03:59.730Z,2.37
2023-03-28T20:06:28.178Z,1.90
2023-03-28T20:08:56.558Z,2.23
2023-03-28T20:11:26.749Z,2.10
2023-03-28T20:13:56.409Z,2.40
2023-03-28T20:16:24.891Z,2.10
2023-03-28T20:18:56.534Z,1.90
2023-03-28T20:21:25.696Z,2.13
2023-03-28T20:23:59.093Z,2.20
2023-03-28T20:26:30.852Z,2.10
2023-03-28T20:29:00.557Z,2.10
2023-03-28T20:31:29.773Z,2.00
2023-03-28T20:33:59.036Z,2.43
2023-03-28T20:36:27.405Z,2.20
2023-03-28T20:38:56.591Z,1.90
2023-03-28T20:41:27.397Z,2.20
2023-03-28T20:44:03.683Z,2.33
2023-03-28T20:46:34.678Z,2.10
2023-03-28T20:49:06.255Z,2.20
2023-03-28T20:51:39.377Z,2.00
2023-03-28T20:54:07.807Z,1.97
2023-03-28T20:56:36.362Z,1.70
2023-03-28T20:59:06.828Z,2.00
2023-03-28T21:01:39.636Z,2.47
2023-03-28T21:04:08.803Z,2.33
2023-03-28T21:06:38.466Z,2.10
2023-03-28T21:09:10.006Z,2.17
2023-03-28T21:11:40.090Z,2.50
2023-03-28T21:14:12.726Z,2.57
2023-03-28T21:16:41.461Z,2.60
2023-03-28T21:19:10.476Z,2.30
2023-03-28T21:21:38.572Z,2.37
2023-03-28T21:24:08.213Z,2.20
2023-03-28T21:26:37.083Z,2.40
2023-03-28T21:29:05.938Z,2.40
2023-03-28T21:31:35.544Z,2.40
2023-03-28T21:34:04.683Z,2.30
2023-03-28T21:36:35.929Z,2.03
2023-03-28T21:39:05.597Z,2.30
2023-03-28T21:41:37.813Z,1.90
2023-03-28T21:44:06.331Z,2.60
2023-03-28T21:46:37.462Z,3.10
2023-03-28T21:49:05.672Z,2.67
2023-03-28T21:51:34.122Z,2.00
2023-03-28T21:54:02.289Z,2.37
2023-03-28T21:56:30.651Z,2.73
2023-03-28T21:58:58.619Z,2.23
2023-03-28T22:01:26.834Z,1.93
2023-03-28T22:03:56.461Z,2.60
2023-03-28T22:06:24.709Z,3.07
2023-03-28T22:08:55.759Z,2.50
2023-03-28T22:11:27.990Z,1.77
2023-03-28T22:14:01.889Z,2.03
2023-03-28T22:16:32.493Z,2.57
2023-03-28T22:19:03.345Z,1.93
2023-03-28T22:21:33.479Z,1.97
2023-03-28T22:24:04.494Z,2.00
2023-03-28T22:26:32.759Z,2.00
2023-03-28T22:29:01.229Z,2.13
2023-03-28T22:31:29.695Z,2.10
2023-03-28T22:33:58.294Z,2.70
2023-03-28T22:36:28.068Z,2.10
2023-03-28T22:38:57.224Z,2.23
2023-03-28T22:41:25.546Z,2.40
2023-03-28T22:43:53.643Z,2.10
2023-03-28T22:46:22.351Z,2.47
2023-03-28T22:48:54.626Z,2.30
2023-03-28T22:51:25.248Z,2.40
2023-03-28T22:53:55.319Z,2.13
2023-03-28T22:56:25.530Z,2.20
2023-03-28T22:58:54.113Z,2.47
2023-03-28T23:01:26.175Z,2.07
2023-03-28T23:03:54.484Z,2.07
2023-03-28T23:06:22.790Z,2.53
2023-03-28T23:08:50.874Z,1.90
2023-03-28T23:11:21.298Z,2.30
2023-03-28T23:13:49.431Z,2.33
2023-03-28T23:16:18.027Z,2.17
2023-03-28T23:18:46.311Z,2.60
2023-03-28T23:21:14.741Z,2.50
2023-03-28T23:23:43.197Z,2.73
2023-03-28T23:26:11.343Z,2.63
2023-03-28T23:28:40.942Z,2.27
2023-03-28T23:31:11.355Z,2.17
2023-03-28T23:33:40.163Z,3.23
2023-03-28T23:36:09.261Z,2.57
2023-03-28T23:38:37.605Z,3.47
2023-03-28T23:41:06.687Z,2.23
2023-03-28T23:43:35.572Z,2.37
2023-03-28T23:46:05.413Z,3.37
2023-03-28T23:48:33.677Z,3.30
2023-03-28T23:51:02.767Z,3.13
2023-03-28T23:53:31.332Z,2.60
2023-03-28T23:55:59.641Z,2.63
2023-03-28T23:58:27.867Z,2.63
